sensor_id;sensor_type;location;lat;lon;timestamp;temperature;humidity
14473;DHT22;7322;50.872;4.386;2022-08-19T00:00:29;21.70;99.90
14473;DHT22;7322;50.872;4.386;2022-08-19T00:02:58;21.70;99.90
14473;DHT22;7322;50.872;4.386;2022-08-19T00:05:25;21.70;99.90
14473;DHT22;7322;50.872;4.386;2022-08-19T00:07:52;21.80;99.90
14473;DHT22;7322;50.872;4.386;2022-08-19T00:10:19;21.70;99.90
14473;DHT22;7322;50.872;4.386;2022-08-19T00:12:47;21.80;99.90
14473;DHT22;7322;50.872;4.386;2022-08-19T00:15:16;21.80;99.90
14473;DHT22;7322;50.872;4.386;2022-08-19T00:17:45;21.70;99.90
14473;DHT22;7322;50.872;4.386;2022-08-19T00:20:15;21.60;99.90
14473;DHT22;7322;50.872;4.386;2022-08-19T00:22:43;21.60;99.90
14473;DHT22;7322;50.872;4.386;2022-08-19T00:25:11;21.60;99.90
14473;DHT22;7322;50.872;4.386;2022-08-19T00:27:39;21.50;99.90
14473;DHT22;7322;50.872;4.386;2022-08-19T00:30:12;21.40;99.90
14473;DHT22;7322;50.872;4.386;2022-08-19T00:32:49;21.40;99.90
14473;DHT22;7322;50.872;4.386;2022-08-19T00:35:18;21.40;99.90
14473;DHT22;7322;50.872;4.386;2022-08-19T00:37:47;21.30;99.90
14473;DHT22;7322;50.872;4.386;2022-08-19T00:40:32;21.10;99.90
14473;DHT22;7322;50.872;4.386;2022-08-19T00:43:08;21.20;99.90
14473;DHT22;7322;50.872;4.386;2022-08-19T00:45:38;21.20;99.90
14473;DHT22;7322;50.872;4.386;2022-08-19T00:48:18;21.20;99.90
14473;DHT22;7322;50.872;4.386;2022-08-19T00:50:53;21.10;99.90
14473;DHT22;7322;50.872;4.386;2022-08-19T00:53:24;21.00;99.90
14473;DHT22;7322;50.872;4.386;2022-08-19T00:55:55;21.00;99.90
14473;DHT22;7322;50.872;4.386;2022-08-19T00:58:27;21.20;99.90
14473;DHT22;7322;50.872;4.386;2022-08-19T01:00:54;21.30;99.90
14473;DHT22;7322;50.872;4.386;2022-08-19T01:03:28;21.40;99.90
14473;DHT22;7322;50.872;4.386;2022-08-19T01:05:59;21.30;99.90
14473;DHT22;7322;50.872;4.386;2022-08-19T01:08:28;21.30;99.90
14473;DHT22;7322;50.872;4.386;2022-08-19T01:10:57;21.30;99.90
14473;DHT22;7322;50.872;4.386;2022-08-19T01:13:27;21.40;99.90
14473;DHT22;7322;50.872;4.386;2022-08-19T01:16:02;21.50;99.90
14473;DHT22;7322;50.872;4.386;2022-08-19T01:18:30;21.40;99.90
14473;DHT22;7322;50.872;4.386;2022-08-19T01:21:20;21.30;99.90
14473;DHT22;7322;50.872;4.386;2022-08-19T01:23:51;21.30;99.90
14473;DHT22;7322;50.872;4.386;2022-08-19T01:26:24;21.20;99.90
14473;DHT22;7322;50.872;4.386;2022-08-19T01:28:54;21.10;99.90
14473;DHT22;7322;50.872;4.386;2022-08-19T01:31:24;21.10;99.90
14473;DHT22;7322;50.872;4.386;2022-08-19T01:33:52;21.20;99.90
14473;DHT22;7322;50.872;4.386;2022-08-19T01:36:23;21.10;99.90
14473;DHT22;7322;50.872;4.386;2022-08-19T01:38:53;21.10;99.90
14473;DHT22;7322;50.872;4.386;2022-08-19T01:41:20;21.00;99.90
14473;DHT22;7322;50.872;4.386;2022-08-19T01:43:49;20.90;99.90
14473;DHT22;7322;50.872;4.386;2022-08-19T01:46:17;21.00;99.90
14473;DHT22;7322;50.872;4.386;2022-08-19T01:48:44;20.90;99.90
14473;DHT22;7322;50.872;4.386;2022-08-19T01:51:12;20.70;99.90
14473;DHT22;7322;50.872;4.386;2022-08-19T01:53:39;20.70;99.90
14473;DHT22;7322;50.872;4.386;2022-08-19T01:56:08;20.60;99.90
14473;DHT22;7322;50.872;4.386;2022-08-19T01:58:39;20.50;99.90
14473;DHT22;7322;50.872;4.386;2022-08-19T02:01:08;20.50;99.90
14473;DHT22;7322;50.872;4.386;2022-08-19T02:03:34;20.40;99.90
14473;DHT22;7322;50.872;4.386;2022-08-19T02:06:03;20.40;99.90
14473;DHT22;7322;50.872;4.386;2022-08-19T02:08:31;20.30;99.90
14473;DHT22;7322;50.872;4.386;2022-08-19T02:10:58;20.30;99.90
14473;DHT22;7322;50.872;4.386;2022-08-19T02:13:27;20.30;99.90
14473;DHT22;7322;50.872;4.386;2022-08-19T02:15:54;20.30;99.90
14473;DHT22;7322;50.872;4.386;2022-08-19T02:18:21;20.30;99.90
14473;DHT22;7322;50.872;4.386;2022-08-19T02:20:48;20.30;99.90
14473;DHT22;7322;50.872;4.386;2022-08-19T02:23:16;20.30;99.90
14473;DHT22;7322;50.872;4.386;2022-08-19T02:25:44;20.30;99.90
14473;DHT22;7322;50.872;4.386;2022-08-19T02:28:11;20.00;99.90
14473;DHT22;7322;50.872;4.386;2022-08-19T02:30:42;20.10;99.90
14473;DHT22;7322;50.872;4.386;2022-08-19T02:33:09;20.10;99.90
14473;DHT22;7322;50.872;4.386;2022-08-19T02:35:36;19.90;99.90
14473;DHT22;7322;50.872;4.386;2022-08-19T02:38:03;19.90;99.90
14473;DHT22;7322;50.872;4.386;2022-08-19T02:40:51;19.90;99.90
14473;DHT22;7322;50.872;4.386;2022-08-19T02:43:18;19.80;99.90
14473;DHT22;7322;50.872;4.386;2022-08-19T02:45:49;19.80;99.90
14473;DHT22;7322;50.872;4.386;2022-08-19T02:48:18;19.70;99.90
14473;DHT22;7322;50.872;4.386;2022-08-19T02:50:45;19.70;99.90
14473;DHT22;7322;50.872;4.386;2022-08-19T02:53:12;19.80;99.90
14473;DHT22;7322;50.872;4.386;2022-08-19T02:55:43;19.80;99.90
14473;DHT22;7322;50.872;4.386;2022-08-19T02:58:11;19.80;99.90
14473;DHT22;7322;50.872;4.386;2022-08-19T03:00:42;19.70;99.90
14473;DHT22;7322;50.872;4.386;2022-08-19T03:03:11;19.70;99.90
14473;DHT22;7322;50.872;4.386;2022-08-19T03:05:39;19.70;99.90
14473;DHT22;7322;50.872;4.386;2022-08-19T03:08:06;19.70;99.90
14473;DHT22;7322;50.872;4.386;2022-08-19T03:10:40;19.50;99.90
14473;DHT22;7322;50.872;4.386;2022-08-19T03:13:10;19.50;99.90
14473;DHT22;7322;50.872;4.386;2022-08-19T03:15:42;19.30;99.90
14473;DHT22;7322;50.872;4.386;2022-08-19T03:18:11;19.20;99.90
14473;DHT22;7322;50.872;4.386;2022-08-19T03:20:43;19.30;99.90
14473;DHT22;7322;50.872;4.386;2022-08-19T03:23:11;19.20;99.90
14473;DHT22;7322;50.872;4.386;2022-08-19T03:25:40;19.10;99.90
14473;DHT22;7322;50.872;4.386;2022-08-19T03:28:09;19.30;99.90
14473;DHT22;7322;50.872;4.386;2022-08-19T03:30:36;19.30;99.90
14473;DHT22;7322;50.872;4.386;2022-08-19T03:33:03;19.10;99.90
14473;DHT22;7322;50.872;4.386;2022-08-19T03:35:31;19.10;99.90
14473;DHT22;7322;50.872;4.386;2022-08-19T03:37:59;19.10;99.90
14473;DHT22;7322;50.872;4.386;2022-08-19T03:40:26;19.00;99.90
14473;DHT22;7322;50.872;4.386;2022-08-19T03:42:55;19.10;99.90
14473;DHT22;7322;50.872;4.386;2022-08-19T03:45:22;19.10;99.90
14473;DHT22;7322;50.872;4.386;2022-08-19T03:47:49;19.00;99.90
14473;DHT22;7322;50.872;4.386;2022-08-19T03:50:16;18.90;99.90
14473;DHT22;7322;50.872;4.386;2022-08-19T03:52:49;18.90;99.90
14473;DHT22;7322;50.872;4.386;2022-08-19T03:55:17;19.00;99.90
14473;DHT22;7322;50.872;4.386;2022-08-19T03:57:52;18.90;99.90
14473;DHT22;7322;50.872;4.386;2022-08-19T04:00:31;18.90;99.90
14473;DHT22;7322;50.872;4.386;2022-08-19T04:03:03;18.90;99.90
14473;DHT22;7322;50.872;4.386;2022-08-19T04:05:30;18.80;99.90
14473;DHT22;7322;50.872;4.386;2022-08-19T04:07:59;18.70;99.90
14473;DHT22;7322;50.872;4.386;2022-08-19T04:10:26;18.80;99.90
14473;DHT22;7322;50.872;4.386;2022-08-19T04:12:54;18.70;99.90
14473;DHT22;7322;50.872;4.386;2022-08-19T04:15:21;18.70;99.90
14473;DHT22;7322;50.872;4.386;2022-08-19T04:17:47;18.70;99.90
14473;DHT22;7322;50.872;4.386;2022-08-19T04:20:15;18.60;99.90
14473;DHT22;7322;50.872;4.386;2022-08-19T04:22:42;18.50;99.90
14473;DHT22;7322;50.872;4.386;2022-08-19T04:25:10;18.40;99.90
14473;DHT22;7322;50.872;4.386;2022-08-19T04:27:38;18.50;99.90
14473;DHT22;7322;50.872;4.386;2022-08-19T04:30:09;18.40;99.90
14473;DHT22;7322;50.872;4.386;2022-08-19T04:32:36;18.40;99.90
14473;DHT22;7322;50.872;4.386;2022-08-19T04:35:04;18.40;99.90
14473;DHT22;7322;50.872;4.386;2022-08-19T04:37:32;18.20;99.90
14473;DHT22;7322;50.872;4.386;2022-08-19T04:39:59;18.30;99.90
14473;DHT22;7322;50.872;4.386;2022-08-19T04:42:45;18.20;99.90
14473;DHT22;7322;50.872;4.386;2022-08-19T04:45:13;18.10;99.90
14473;DHT22;7322;50.872;4.386;2022-08-19T04:47:42;18.10;99.90
14473;DHT22;7322;50.872;4.386;2022-08-19T04:50:10;18.20;99.90
14473;DHT22;7322;50.872;4.386;2022-08-19T04:52:37;18.10;99.90
14473;DHT22;7322;50.872;4.386;2022-08-19T04:55:08;18.10;99.90
14473;DHT22;7322;50.872;4.386;2022-08-19T04:57:35;18.00;99.90
14473;DHT22;7322;50.872;4.386;2022-08-19T05:00:08;18.00;99.90
14473;DHT22;7322;50.872;4.386;2022-08-19T05:02:37;18.00;99.90
14473;DHT22;7322;50.872;4.386;2022-08-19T05:05:04;18.00;99.90
14473;DHT22;7322;50.872;4.386;2022-08-19T05:07:32;18.10;99.90
14473;DHT22;7322;50.872;4.386;2022-08-19T05:09:58;18.20;99.90
14473;DHT22;7322;50.872;4.386;2022-08-19T05:12:26;18.20;99.90
14473;DHT22;7322;50.872;4.386;2022-08-19T05:14:53;18.20;99.90
14473;DHT22;7322;50.872;4.386;2022-08-19T05:17:24;18.20;99.90
14473;DHT22;7322;50.872;4.386;2022-08-19T05:19:52;18.20;99.90
14473;DHT22;7322;50.872;4.386;2022-08-19T05:22:36;18.10;99.90
14473;DHT22;7322;50.872;4.386;2022-08-19T05:25:06;18.20;99.90
14473;DHT22;7322;50.872;4.386;2022-08-19T05:27:33;18.10;99.90
14473;DHT22;7322;50.872;4.386;2022-08-19T05:30:00;18.00;99.90
14473;DHT22;7322;50.872;4.386;2022-08-19T05:32:29;18.20;99.90
14473;DHT22;7322;50.872;4.386;2022-08-19T05:34:56;18.30;99.90
14473;DHT22;7322;50.872;4.386;2022-08-19T05:37:24;18.40;99.90
14473;DHT22;7322;50.872;4.386;2022-08-19T05:39:53;18.50;99.90
14473;DHT22;7322;50.872;4.386;2022-08-19T05:42:21;18.50;99.90
14473;DHT22;7322;50.872;4.386;2022-08-19T05:44:49;18.60;99.90
14473;DHT22;7322;50.872;4.386;2022-08-19T05:47:16;18.70;99.90
14473;DHT22;7322;50.872;4.386;2022-08-19T05:49:47;18.90;99.90
14473;DHT22;7322;50.872;4.386;2022-08-19T05:52:15;18.90;99.90
14473;DHT22;7322;50.872;4.386;2022-08-19T05:54:42;19.00;99.90
14473;DHT22;7322;50.872;4.386;2022-08-19T05:57:14;19.00;99.90
14473;DHT22;7322;50.872;4.386;2022-08-19T05:59:41;19.00;99.90
14473;DHT22;7322;50.872;4.386;2022-08-19T06:02:10;19.20;99.90
14473;DHT22;7322;50.872;4.386;2022-08-19T06:04:43;19.10;99.90
14473;DHT22;7322;50.872;4.386;2022-08-19T06:07:23;19.10;99.90
14473;DHT22;7322;50.872;4.386;2022-08-19T06:09:52;19.20;99.90
14473;DHT22;7322;50.872;4.386;2022-08-19T06:12:21;19.20;99.90
14473;DHT22;7322;50.872;4.386;2022-08-19T06:14:51;19.40;99.90
14473;DHT22;7322;50.872;4.386;2022-08-19T06:17:20;19.70;99.90
14473;DHT22;7322;50.872;4.386;2022-08-19T06:19:50;20.00;99.90
14473;DHT22;7322;50.872;4.386;2022-08-19T06:22:18;20.00;99.90
14473;DHT22;7322;50.872;4.386;2022-08-19T06:24:48;19.90;99.90
14473;DHT22;7322;50.872;4.386;2022-08-19T06:27:18;19.90;99.90
14473;DHT22;7322;50.872;4.386;2022-08-19T06:29:44;19.80;99.90
14473;DHT22;7322;50.872;4.386;2022-08-19T06:32:14;19.90;99.90
14473;DHT22;7322;50.872;4.386;2022-08-19T06:34:42;20.30;99.90
14473;DHT22;7322;50.872;4.386;2022-08-19T06:37:10;20.80;99.90
14473;DHT22;7322;50.872;4.386;2022-08-19T06:39:40;21.00;99.90
14473;DHT22;7322;50.872;4.386;2022-08-19T06:42:09;20.80;99.90
14473;DHT22;7322;50.872;4.386;2022-08-19T06:44:40;20.50;99.90
14473;DHT22;7322;50.872;4.386;2022-08-19T06:47:10;20.50;99.90
14473;DHT22;7322;50.872;4.386;2022-08-19T06:49:37;20.70;99.90
14473;DHT22;7322;50.872;4.386;2022-08-19T06:52:05;20.80;99.90
14473;DHT22;7322;50.872;4.386;2022-08-19T06:54:32;20.80;99.90
14473;DHT22;7322;50.872;4.386;2022-08-19T06:57:02;20.80;99.90
14473;DHT22;7322;50.872;4.386;2022-08-19T06:59:31;20.70;99.90
14473;DHT22;7322;50.872;4.386;2022-08-19T07:02:00;20.80;99.90
14473;DHT22;7322;50.872;4.386;2022-08-19T07:04:30;20.80;99.90
14473;DHT22;7322;50.872;4.386;2022-08-19T07:06:59;20.90;99.90
14473;DHT22;7322;50.872;4.386;2022-08-19T07:09:27;21.40;99.90
14473;DHT22;7322;50.872;4.386;2022-08-19T07:11:54;21.70;99.90
14473;DHT22;7322;50.872;4.386;2022-08-19T07:14:25;21.50;99.90
14473;DHT22;7322;50.872;4.386;2022-08-19T07:16:55;21.30;99.90
14473;DHT22;7322;50.872;4.386;2022-08-19T07:19:29;21.10;99.90
14473;DHT22;7322;50.872;4.386;2022-08-19T07:21:57;21.10;99.90
14473;DHT22;7322;50.872;4.386;2022-08-19T07:24:26;21.10;99.90
14473;DHT22;7322;50.872;4.386;2022-08-19T07:27:05;21.50;99.90
14473;DHT22;7322;50.872;4.386;2022-08-19T07:29:52;21.90;99.90
14473;DHT22;7322;50.872;4.386;2022-08-19T07:32:20;21.60;99.90
14473;DHT22;7322;50.872;4.386;2022-08-19T07:34:49;21.30;99.90
14473;DHT22;7322;50.872;4.386;2022-08-19T07:37:21;21.30;99.90
14473;DHT22;7322;50.872;4.386;2022-08-19T07:39:50;21.30;99.90
14473;DHT22;7322;50.872;4.386;2022-08-19T07:42:19;21.30;99.90
14473;DHT22;7322;50.872;4.386;2022-08-19T07:44:49;21.50;99.90
14473;DHT22;7322;50.872;4.386;2022-08-19T07:47:17;21.50;99.90
14473;DHT22;7322;50.872;4.386;2022-08-19T07:49:45;21.50;99.90
14473;DHT22;7322;50.872;4.386;2022-08-19T07:52:13;21.70;99.90
14473;DHT22;7322;50.872;4.386;2022-08-19T07:54:40;22.20;99.90
14473;DHT22;7322;50.872;4.386;2022-08-19T07:57:07;23.00;99.90
14473;DHT22;7322;50.872;4.386;2022-08-19T07:59:34;23.80;99.90
14473;DHT22;7322;50.872;4.386;2022-08-19T08:02:02;24.10;99.90
14473;DHT22;7322;50.872;4.386;2022-08-19T08:04:31;24.00;99.90
14473;DHT22;7322;50.872;4.386;2022-08-19T08:07:17;23.80;99.90
14473;DHT22;7322;50.872;4.386;2022-08-19T08:10:04;23.30;99.90
14473;DHT22;7322;50.872;4.386;2022-08-19T08:12:39;23.00;99.90
14473;DHT22;7322;50.872;4.386;2022-08-19T08:15:10;22.70;99.90
14473;DHT22;7322;50.872;4.386;2022-08-19T08:17:42;23.20;99.90
14473;DHT22;7322;50.872;4.386;2022-08-19T08:20:10;23.90;99.90
14473;DHT22;7322;50.872;4.386;2022-08-19T08:22:43;24.40;99.90
14473;DHT22;7322;50.872;4.386;2022-08-19T08:25:28;24.30;99.90
14473;DHT22;7322;50.872;4.386;2022-08-19T08:27:57;23.90;99.90
14473;DHT22;7322;50.872;4.386;2022-08-19T08:30:27;24.10;99.90
14473;DHT22;7322;50.872;4.386;2022-08-19T08:32:54;24.00;99.90
14473;DHT22;7322;50.872;4.386;2022-08-19T08:35:23;23.60;99.90
14473;DHT22;7322;50.872;4.386;2022-08-19T08:37:53;23.40;99.90
14473;DHT22;7322;50.872;4.386;2022-08-19T08:40:23;23.40;99.90
14473;DHT22;7322;50.872;4.386;2022-08-19T08:42:57;23.40;99.90
14473;DHT22;7322;50.872;4.386;2022-08-19T08:45:27;23.10;99.90
14473;DHT22;7322;50.872;4.386;2022-08-19T08:47:58;22.70;99.90
14473;DHT22;7322;50.872;4.386;2022-08-19T08:50:32;23.00;99.90
14473;DHT22;7322;50.872;4.386;2022-08-19T08:53:03;22.90;99.90
14473;DHT22;7322;50.872;4.386;2022-08-19T08:55:32;22.70;99.90
14473;DHT22;7322;50.872;4.386;2022-08-19T08:58:03;22.50;99.90
14473;DHT22;7322;50.872;4.386;2022-08-19T09:00:32;22.40;99.90
14473;DHT22;7322;50.872;4.386;2022-08-19T09:03:00;22.30;99.90
14473;DHT22;7322;50.872;4.386;2022-08-19T09:05:35;22.50;99.90
14473;DHT22;7322;50.872;4.386;2022-08-19T09:08:10;22.50;99.90
14473;DHT22;7322;50.872;4.386;2022-08-19T09:10:44;22.50;99.90
14473;DHT22;7322;50.872;4.386;2022-08-19T09:13:19;22.60;99.90
14473;DHT22;7322;50.872;4.386;2022-08-19T09:15:52;22.70;99.90
14473;DHT22;7322;50.872;4.386;2022-08-19T09:18:21;22.80;99.90
14473;DHT22;7322;50.872;4.386;2022-08-19T09:20:48;22.80;99.90
14473;DHT22;7322;50.872;4.386;2022-08-19T09:23:17;22.80;99.90
14473;DHT22;7322;50.872;4.386;2022-08-19T09:25:44;22.70;99.90
14473;DHT22;7322;50.872;4.386;2022-08-19T09:28:11;22.80;99.90
14473;DHT22;7322;50.872;4.386;2022-08-19T09:30:40;22.80;99.90
14473;DHT22;7322;50.872;4.386;2022-08-19T09:33:08;23.00;99.90
14473;DHT22;7322;50.872;4.386;2022-08-19T09:35:37;23.00;99.90
14473;DHT22;7322;50.872;4.386;2022-08-19T09:38:04;23.00;99.90
14473;DHT22;7322;50.872;4.386;2022-08-19T09:40:32;23.00;99.90
14473;DHT22;7322;50.872;4.386;2022-08-19T09:42:59;23.00;99.90
14473;DHT22;7322;50.872;4.386;2022-08-19T09:45:28;23.00;99.90
14473;DHT22;7322;50.872;4.386;2022-08-19T09:47:56;23.10;99.90
14473;DHT22;7322;50.872;4.386;2022-08-19T09:50:23;23.20;99.90
14473;DHT22;7322;50.872;4.386;2022-08-19T09:52:51;23.20;99.90
14473;DHT22;7322;50.872;4.386;2022-08-19T09:55:20;23.30;99.90
14473;DHT22;7322;50.872;4.386;2022-08-19T09:57:48;23.20;99.90
14473;DHT22;7322;50.872;4.386;2022-08-19T10:00:15;23.30;99.90
14473;DHT22;7322;50.872;4.386;2022-08-19T10:02:43;23.20;99.90
14473;DHT22;7322;50.872;4.386;2022-08-19T10:05:10;23.30;99.90
14473;DHT22;7322;50.872;4.386;2022-08-19T10:07:54;23.40;99.90
14473;DHT22;7322;50.872;4.386;2022-08-19T10:10:21;23.40;99.90
14473;DHT22;7322;50.872;4.386;2022-08-19T10:12:52;23.50;99.90
14473;DHT22;7322;50.872;4.386;2022-08-19T10:15:20;23.40;99.90
14473;DHT22;7322;50.872;4.386;2022-08-19T10:17:47;23.20;99.90
14473;DHT22;7322;50.872;4.386;2022-08-19T10:20:15;23.20;99.90
14473;DHT22;7322;50.872;4.386;2022-08-19T10:22:42;23.10;99.90
14473;DHT22;7322;50.872;4.386;2022-08-19T10:25:10;23.10;99.90
14473;DHT22;7322;50.872;4.386;2022-08-19T10:27:39;23.20;99.90
14473;DHT22;7322;50.872;4.386;2022-08-19T10:30:08;23.30;99.90
14473;DHT22;7322;50.872;4.386;2022-08-19T10:32:36;23.50;99.90
14473;DHT22;7322;50.872;4.386;2022-08-19T10:35:03;23.50;99.90
14473;DHT22;7322;50.872;4.386;2022-08-19T10:37:33;23.50;99.90
14473;DHT22;7322;50.872;4.386;2022-08-19T10:40:01;23.50;99.90
14473;DHT22;7322;50.872;4.386;2022-08-19T10:42:31;23.70;99.90
14473;DHT22;7322;50.872;4.386;2022-08-19T10:44:58;23.60;99.90
14473;DHT22;7322;50.872;4.386;2022-08-19T10:47:35;23.80;99.90
14473;DHT22;7322;50.872;4.386;2022-08-19T10:50:03;23.60;99.90
14473;DHT22;7322;50.872;4.386;2022-08-19T10:52:51;23.80;99.90
14473;DHT22;7322;50.872;4.386;2022-08-19T10:55:20;23.60;99.90
14473;DHT22;7322;50.872;4.386;2022-08-19T10:58:10;23.60;99.90
14473;DHT22;7322;50.872;4.386;2022-08-19T11:00:39;23.70;99.90
14473;DHT22;7322;50.872;4.386;2022-08-19T11:03:08;23.60;99.90
14473;DHT22;7322;50.872;4.386;2022-08-19T11:05:36;23.50;99.90
14473;DHT22;7322;50.872;4.386;2022-08-19T11:08:04;23.50;99.90
14473;DHT22;7322;50.872;4.386;2022-08-19T11:10:32;23.40;99.90
14473;DHT22;7322;50.872;4.386;2022-08-19T11:12:59;23.30;99.90
14473;DHT22;7322;50.872;4.386;2022-08-19T11:15:26;23.30;99.90
14473;DHT22;7322;50.872;4.386;2022-08-19T11:17:54;23.20;99.90
14473;DHT22;7322;50.872;4.386;2022-08-19T11:20:23;23.10;99.90
14473;DHT22;7322;50.872;4.386;2022-08-19T11:22:56;22.90;99.90
14473;DHT22;7322;50.872;4.386;2022-08-19T11:25:23;23.20;99.90
14473;DHT22;7322;50.872;4.386;2022-08-19T11:27:51;23.50;99.90
14473;DHT22;7322;50.872;4.386;2022-08-19T11:30:18;23.80;99.90
14473;DHT22;7322;50.872;4.386;2022-08-19T11:32:45;24.00;99.90
14473;DHT22;7322;50.872;4.386;2022-08-19T11:35:13;23.90;99.90
14473;DHT22;7322;50.872;4.386;2022-08-19T11:37:41;24.10;99.90
14473;DHT22;7322;50.872;4.386;2022-08-19T11:40:09;24.30;99.90
14473;DHT22;7322;50.872;4.386;2022-08-19T11:42:36;24.50;99.90
14473;DHT22;7322;50.872;4.386;2022-08-19T11:45:22;24.30;99.90
14473;DHT22;7322;50.872;4.386;2022-08-19T11:47:49;24.00;99.90
14473;DHT22;7322;50.872;4.386;2022-08-19T11:50:16;23.70;99.90
14473;DHT22;7322;50.872;4.386;2022-08-19T11:52:45;23.70;99.90
14473;DHT22;7322;50.872;4.386;2022-08-19T11:55:13;23.80;99.90
14473;DHT22;7322;50.872;4.386;2022-08-19T11:57:40;24.10;99.90
14473;DHT22;7322;50.872;4.386;2022-08-19T12:00:10;24.20;99.90
14473;DHT22;7322;50.872;4.386;2022-08-19T12:02:38;24.40;99.90
14473;DHT22;7322;50.872;4.386;2022-08-19T12:05:05;24.70;99.90
14473;DHT22;7322;50.872;4.386;2022-08-19T12:07:33;24.90;99.90
14473;DHT22;7322;50.872;4.386;2022-08-19T12:10:01;25.30;99.90
14473;DHT22;7322;50.872;4.386;2022-08-19T12:12:28;25.70;99.90
14473;DHT22;7322;50.872;4.386;2022-08-19T12:14:55;26.10;99.90
14473;DHT22;7322;50.872;4.386;2022-08-19T12:17:24;26.30;99.90
14473;DHT22;7322;50.872;4.386;2022-08-19T12:19:51;26.60;99.90
14473;DHT22;7322;50.872;4.386;2022-08-19T12:22:18;26.60;99.90
14473;DHT22;7322;50.872;4.386;2022-08-19T12:24:46;26.80;99.90
14473;DHT22;7322;50.872;4.386;2022-08-19T12:27:23;26.70;99.90
14473;DHT22;7322;50.872;4.386;2022-08-19T12:29:50;26.60;99.90
14473;DHT22;7322;50.872;4.386;2022-08-19T12:32:17;26.70;99.90
14473;DHT22;7322;50.872;4.386;2022-08-19T12:34:45;26.30;99.90
14473;DHT22;7322;50.872;4.386;2022-08-19T12:37:14;26.20;99.90
14473;DHT22;7322;50.872;4.386;2022-08-19T12:39:48;26.10;99.90
14473;DHT22;7322;50.872;4.386;2022-08-19T12:42:23;25.90;99.90
14473;DHT22;7322;50.872;4.386;2022-08-19T12:44:51;25.70;99.90
14473;DHT22;7322;50.872;4.386;2022-08-19T12:47:18;25.60;99.90
14473;DHT22;7322;50.872;4.386;2022-08-19T12:49:46;25.70;99.90
14473;DHT22;7322;50.872;4.386;2022-08-19T12:52:13;25.90;99.90
14473;DHT22;7322;50.872;4.386;2022-08-19T12:54:41;25.80;99.90
14473;DHT22;7322;50.872;4.386;2022-08-19T12:57:10;26.00;99.90
14473;DHT22;7322;50.872;4.386;2022-08-19T12:59:39;26.40;99.90
14473;DHT22;7322;50.872;4.386;2022-08-19T13:02:07;26.80;99.90
14473;DHT22;7322;50.872;4.386;2022-08-19T13:04:34;26.80;99.90
14473;DHT22;7322;50.872;4.386;2022-08-19T13:07:06;26.70;99.90
14473;DHT22;7322;50.872;4.386;2022-08-19T13:09:33;26.40;99.90
14473;DHT22;7322;50.872;4.386;2022-08-19T13:12:01;26.80;99.90
14473;DHT22;7322;50.872;4.386;2022-08-19T13:14:34;26.80;99.90
14473;DHT22;7322;50.872;4.386;2022-08-19T13:17:02;27.10;99.90
14473;DHT22;7322;50.872;4.386;2022-08-19T13:19:29;27.30;99.90
14473;DHT22;7322;50.872;4.386;2022-08-19T13:21:57;27.40;99.90
14473;DHT22;7322;50.872;4.386;2022-08-19T13:24:24;27.80;99.90
14473;DHT22;7322;50.872;4.386;2022-08-19T13:26:51;28.00;99.90
14473;DHT22;7322;50.872;4.386;2022-08-19T13:29:18;27.90;99.90
14473;DHT22;7322;50.872;4.386;2022-08-19T13:32:04;27.80;99.90
14473;DHT22;7322;50.872;4.386;2022-08-19T13:34:48;27.50;99.90
14473;DHT22;7322;50.872;4.386;2022-08-19T13:37:15;27.30;99.90
14473;DHT22;7322;50.872;4.386;2022-08-19T13:40:04;27.10;99.90
14473;DHT22;7322;50.872;4.386;2022-08-19T13:42:32;27.30;99.90
14473;DHT22;7322;50.872;4.386;2022-08-19T13:44:59;27.50;99.90
14473;DHT22;7322;50.872;4.386;2022-08-19T13:47:29;27.40;99.90
14473;DHT22;7322;50.872;4.386;2022-08-19T13:49:56;27.80;99.90
14473;DHT22;7322;50.872;4.386;2022-08-19T13:52:24;27.40;99.90
14473;DHT22;7322;50.872;4.386;2022-08-19T13:54:51;27.00;99.90
14473;DHT22;7322;50.872;4.386;2022-08-19T13:57:18;26.90;99.90
14473;DHT22;7322;50.872;4.386;2022-08-19T13:59:47;26.70;99.90
14473;DHT22;7322;50.872;4.386;2022-08-19T14:02:18;26.60;99.90
14473;DHT22;7322;50.872;4.386;2022-08-19T14:04:53;26.70;99.90
14473;DHT22;7322;50.872;4.386;2022-08-19T14:07:22;26.60;99.90
14473;DHT22;7322;50.872;4.386;2022-08-19T14:09:50;26.50;99.90
14473;DHT22;7322;50.872;4.386;2022-08-19T14:12:22;26.40;99.90
14473;DHT22;7322;50.872;4.386;2022-08-19T14:14:50;26.10;99.90
14473;DHT22;7322;50.872;4.386;2022-08-19T14:17:16;25.90;99.90
14473;DHT22;7322;50.872;4.386;2022-08-19T14:19:43;25.50;99.90
14473;DHT22;7322;50.872;4.386;2022-08-19T14:22:12;25.40;99.90
14473;DHT22;7322;50.872;4.386;2022-08-19T14:24:39;25.20;99.90
14473;DHT22;7322;50.872;4.386;2022-08-19T14:27:06;24.90;99.90
14473;DHT22;7322;50.872;4.386;2022-08-19T14:29:34;24.60;99.90
14473;DHT22;7322;50.872;4.386;2022-08-19T14:32:00;24.50;99.90
14473;DHT22;7322;50.872;4.386;2022-08-19T14:34:27;24.40;99.90
14473;DHT22;7322;50.872;4.386;2022-08-19T14:36:57;24.50;99.90
14473;DHT22;7322;50.872;4.386;2022-08-19T14:39:25;24.50;99.90
14473;DHT22;7322;50.872;4.386;2022-08-19T14:41:52;24.40;99.90
14473;DHT22;7322;50.872;4.386;2022-08-19T14:44:19;24.20;99.90
14473;DHT22;7322;50.872;4.386;2022-08-19T14:46:48;24.10;99.90
14473;DHT22;7322;50.872;4.386;2022-08-19T14:49:16;23.90;99.90
14473;DHT22;7322;50.872;4.386;2022-08-19T14:51:44;23.90;99.90
14473;DHT22;7322;50.872;4.386;2022-08-19T14:54:12;23.80;99.90
14473;DHT22;7322;50.872;4.386;2022-08-19T14:56:42;23.60;99.90
14473;DHT22;7322;50.872;4.386;2022-08-19T14:59:09;23.50;99.90
14473;DHT22;7322;50.872;4.386;2022-08-19T15:01:36;23.50;99.90
14473;DHT22;7322;50.872;4.386;2022-08-19T15:04:03;23.40;99.90
14473;DHT22;7322;50.872;4.386;2022-08-19T15:06:30;23.70;99.90
14473;DHT22;7322;50.872;4.386;2022-08-19T15:08:57;24.00;99.90
14473;DHT22;7322;50.872;4.386;2022-08-19T15:11:26;24.10;99.90
14473;DHT22;7322;50.872;4.386;2022-08-19T15:13:56;24.30;99.90
14473;DHT22;7322;50.872;4.386;2022-08-19T15:16:23;24.20;99.90
14473;DHT22;7322;50.872;4.386;2022-08-19T15:18:54;24.40;99.90
14473;DHT22;7322;50.872;4.386;2022-08-19T15:21:23;24.40;99.90
14473;DHT22;7322;50.872;4.386;2022-08-19T15:23:53;24.70;99.90
14473;DHT22;7322;50.872;4.386;2022-08-19T15:26:20;24.90;99.90
14473;DHT22;7322;50.872;4.386;2022-08-19T15:28:56;24.90;99.90
14473;DHT22;7322;50.872;4.386;2022-08-19T15:31:24;25.00;99.90
14473;DHT22;7322;50.872;4.386;2022-08-19T15:33:53;25.00;99.90
14473;DHT22;7322;50.872;4.386;2022-08-19T15:36:23;25.00;99.90
14473;DHT22;7322;50.872;4.386;2022-08-19T15:38:50;25.10;99.90
14473;DHT22;7322;50.872;4.386;2022-08-19T15:41:20;25.00;99.90
14473;DHT22;7322;50.872;4.386;2022-08-19T15:43:51;24.90;99.90
14473;DHT22;7322;50.872;4.386;2022-08-19T15:46:23;24.70;99.90
14473;DHT22;7322;50.872;4.386;2022-08-19T15:48:51;24.70;99.90
14473;DHT22;7322;50.872;4.386;2022-08-19T15:51:22;24.80;99.90
14473;DHT22;7322;50.872;4.386;2022-08-19T15:53:50;24.60;99.90
14473;DHT22;7322;50.872;4.386;2022-08-19T15:56:18;24.50;99.90
14473;DHT22;7322;50.872;4.386;2022-08-19T15:58:45;24.50;99.90